sensor_id;sensor_type;location;lat;lon;timestamp;temperature;humidity
10249;DHT22;5169;50.560;9.714;2024-01-10T00:02:07;-6.80;99.90
10249;DHT22;5169;50.560;9.714;2024-01-10T00:04:33;-6.90;99.90
10249;DHT22;5169;50.560;9.714;2024-01-10T00:06:58;-6.90;99.90
10249;DHT22;5169;50.560;9.714;2024-01-10T00:09:24;-6.90;99.90
10249;DHT22;5169;50.560;9.714;2024-01-10T00:11:49;-6.90;99.90
10249;DHT22;5169;50.560;9.714;2024-01-10T00:14:19;-7.00;99.90
10249;DHT22;5169;50.560;9.714;2024-01-10T00:16:47;-7.00;99.90
10249;DHT22;5169;50.560;9.714;2024-01-10T00:19:13;-7.10;99.90
10249;DHT22;5169;50.560;9.714;2024-01-10T00:21:39;-7.10;99.90
10249;DHT22;5169;50.560;9.714;2024-01-10T00:24:07;-7.10;99.90
10249;DHT22;5169;50.560;9.714;2024-01-10T00:26:35;-7.10;99.90
10249;DHT22;5169;50.560;9.714;2024-01-10T00:29:00;-7.10;99.90
10249;DHT22;5169;50.560;9.714;2024-01-10T00:31:26;-7.20;99.90
10249;DHT22;5169;50.560;9.714;2024-01-10T00:33:51;-7.20;99.90
10249;DHT22;5169;50.560;9.714;2024-01-10T00:36:19;-7.20;99.90
10249;DHT22;5169;50.560;9.714;2024-01-10T00:38:47;-7.20;99.90
10249;DHT22;5169;50.560;9.714;2024-01-10T00:41:13;-7.20;99.90
10249;DHT22;5169;50.560;9.714;2024-01-10T00:43:38;-7.30;99.90
10249;DHT22;5169;50.560;9.714;2024-01-10T00:46:04;-7.30;99.90
10249;DHT22;5169;50.560;9.714;2024-01-10T00:48:30;-7.30;99.90
10249;DHT22;5169;50.560;9.714;2024-01-10T00:50:57;-7.30;99.90
10249;DHT22;5169;50.560;9.714;2024-01-10T00:53:23;-7.30;99.90
10249;DHT22;5169;50.560;9.714;2024-01-10T00:55:49;-7.30;99.90
10249;DHT22;5169;50.560;9.714;2024-01-10T00:58:14;-7.30;99.90
10249;DHT22;5169;50.560;9.714;2024-01-10T01:00:40;-7.30;99.90
10249;DHT22;5169;50.560;9.714;2024-01-10T01:03:06;-7.20;99.90
10249;DHT22;5169;50.560;9.714;2024-01-10T01:05:32;-7.20;99.90
10249;DHT22;5169;50.560;9.714;2024-01-10T01:07:57;-7.10;99.90
10249;DHT22;5169;50.560;9.714;2024-01-10T01:10:23;-7.10;99.90
10249;DHT22;5169;50.560;9.714;2024-01-10T01:12:51;-7.20;99.90
10249;DHT22;5169;50.560;9.714;2024-01-10T01:15:16;-7.20;99.90
10249;DHT22;5169;50.560;9.714;2024-01-10T01:17:42;-7.10;99.90
10249;DHT22;5169;50.560;9.714;2024-01-10T01:20:08;-7.10;99.90
10249;DHT22;5169;50.560;9.714;2024-01-10T01:22:34;-7.10;99.90
10249;DHT22;5169;50.560;9.714;2024-01-10T01:25:01;-7.10;99.90
10249;DHT22;5169;50.560;9.714;2024-01-10T01:27:28;-7.10;99.90
10249;DHT22;5169;50.560;9.714;2024-01-10T01:29:53;-7.10;99.90
10249;DHT22;5169;50.560;9.714;2024-01-10T01:32:21;-7.10;99.90
10249;DHT22;5169;50.560;9.714;2024-01-10T01:34:46;-7.10;99.90
10249;DHT22;5169;50.560;9.714;2024-01-10T01:37:12;-7.20;99.90
10249;DHT22;5169;50.560;9.714;2024-01-10T01:39:40;-7.20;99.90
10249;DHT22;5169;50.560;9.714;2024-01-10T01:42:08;-7.20;99.90
10249;DHT22;5169;50.560;9.714;2024-01-10T01:44:34;-7.30;99.90
10249;DHT22;5169;50.560;9.714;2024-01-10T01:46:59;-7.30;99.90
10249;DHT22;5169;50.560;9.714;2024-01-10T01:49:26;-7.30;99.90
10249;DHT22;5169;50.560;9.714;2024-01-10T01:51:52;-7.40;99.90
10249;DHT22;5169;50.560;9.714;2024-01-10T01:54:20;-7.30;99.90
10249;DHT22;5169;50.560;9.714;2024-01-10T01:56:47;-7.30;99.90
10249;DHT22;5169;50.560;9.714;2024-01-10T01:59:13;-7.20;99.90
10249;DHT22;5169;50.560;9.714;2024-01-10T02:01:39;-7.20;99.90
10249;DHT22;5169;50.560;9.714;2024-01-10T02:04:05;-7.20;99.90
10249;DHT22;5169;50.560;9.714;2024-01-10T02:06:35;-7.20;99.90
10249;DHT22;5169;50.560;9.714;2024-01-10T02:09:01;-7.20;99.90
10249;DHT22;5169;50.560;9.714;2024-01-10T02:11:26;-7.20;99.90
10249;DHT22;5169;50.560;9.714;2024-01-10T02:13:52;-7.30;99.90
10249;DHT22;5169;50.560;9.714;2024-01-10T02:16:23;-7.20;99.90
10249;DHT22;5169;50.560;9.714;2024-01-10T02:18:52;-7.20;99.90
10249;DHT22;5169;50.560;9.714;2024-01-10T02:21:21;-7.20;99.90
10249;DHT22;5169;50.560;9.714;2024-01-10T02:23:47;-7.20;99.90
10249;DHT22;5169;50.560;9.714;2024-01-10T02:26:13;-7.20;99.90
10249;DHT22;5169;50.560;9.714;2024-01-10T02:28:41;-7.30;99.90
10249;DHT22;5169;50.560;9.714;2024-01-10T02:31:07;-7.30;99.90
10249;DHT22;5169;50.560;9.714;2024-01-10T02:33:35;-7.20;99.90
10249;DHT22;5169;50.560;9.714;2024-01-10T02:36:03;-7.30;99.90
10249;DHT22;5169;50.560;9.714;2024-01-10T02:38:29;-7.40;99.90
10249;DHT22;5169;50.560;9.714;2024-01-10T02:40:55;-7.50;99.90
10249;DHT22;5169;50.560;9.714;2024-01-10T02:43:24;-7.50;99.90
10249;DHT22;5169;50.560;9.714;2024-01-10T02:45:49;-7.60;99.90
10249;DHT22;5169;50.560;9.714;2024-01-10T02:48:15;-7.60;99.90
10249;DHT22;5169;50.560;9.714;2024-01-10T02:50:41;-7.60;99.90
10249;DHT22;5169;50.560;9.714;2024-01-10T02:53:06;-7.60;99.90
10249;DHT22;5169;50.560;9.714;2024-01-10T02:55:34;-7.60;99.90
10249;DHT22;5169;50.560;9.714;2024-01-10T02:58:00;-7.60;99.90
10249;DHT22;5169;50.560;9.714;2024-01-10T03:00:28;-7.70;99.90
10249;DHT22;5169;50.560;9.714;2024-01-10T03:02:53;-7.70;99.90
10249;DHT22;5169;50.560;9.714;2024-01-10T03:05:19;-7.60;99.90
10249;DHT22;5169;50.560;9.714;2024-01-10T03:07:44;-7.60;99.90
10249;DHT22;5169;50.560;9.714;2024-01-10T03:10:10;-7.50;99.90
10249;DHT22;5169;50.560;9.714;2024-01-10T03:12:38;-7.60;99.90
10249;DHT22;5169;50.560;9.714;2024-01-10T03:15:08;-7.60;99.90
10249;DHT22;5169;50.560;9.714;2024-01-10T03:17:33;-7.50;99.90
10249;DHT22;5169;50.560;9.714;2024-01-10T03:20:00;-7.50;99.90
10249;DHT22;5169;50.560;9.714;2024-01-10T03:22:26;-7.50;99.90
10249;DHT22;5169;50.560;9.714;2024-01-10T03:24:53;-7.50;99.90
10249;DHT22;5169;50.560;9.714;2024-01-10T03:27:19;-7.50;99.90
10249;DHT22;5169;50.560;9.714;2024-01-10T03:29:45;-7.50;99.90
10249;DHT22;5169;50.560;9.714;2024-01-10T03:32:10;-7.60;99.90
10249;DHT22;5169;50.560;9.714;2024-01-10T03:34:38;-7.50;99.90
10249;DHT22;5169;50.560;9.714;2024-01-10T03:37:04;-7.50;99.90
10249;DHT22;5169;50.560;9.714;2024-01-10T03:39:31;-7.30;99.90
10249;DHT22;5169;50.560;9.714;2024-01-10T03:41:56;-7.30;99.90
10249;DHT22;5169;50.560;9.714;2024-01-10T03:44:22;-7.30;99.90
10249;DHT22;5169;50.560;9.714;2024-01-10T03:46:47;-7.40;99.90
10249;DHT22;5169;50.560;9.714;2024-01-10T03:49:13;-7.50;99.90
10249;DHT22;5169;50.560;9.714;2024-01-10T03:51:38;-7.40;99.90
10249;DHT22;5169;50.560;9.714;2024-01-10T03:54:05;-7.30;99.90
10249;DHT22;5169;50.560;9.714;2024-01-10T03:56:31;-7.20;99.90
10249;DHT22;5169;50.560;9.714;2024-01-10T03:58:57;-7.20;99.90
10249;DHT22;5169;50.560;9.714;2024-01-10T04:01:25;-7.10;99.90
10249;DHT22;5169;50.560;9.714;2024-01-10T04:03:50;-7.20;99.90
10249;DHT22;5169;50.560;9.714;2024-01-10T04:06:16;-7.10;99.90
10249;DHT22;5169;50.560;9.714;2024-01-10T04:08:41;-7.10;99.90
10249;DHT22;5169;50.560;9.714;2024-01-10T04:11:07;-7.10;99.90
10249;DHT22;5169;50.560;9.714;2024-01-10T04:13:34;-7.00;99.90
10249;DHT22;5169;50.560;9.714;2024-01-10T04:16:02;-7.00;99.90
10249;DHT22;5169;50.560;9.714;2024-01-10T04:18:30;-6.90;99.90
10249;DHT22;5169;50.560;9.714;2024-01-10T04:20:56;-7.00;99.90
10249;DHT22;5169;50.560;9.714;2024-01-10T04:23:21;-6.90;99.90
10249;DHT22;5169;50.560;9.714;2024-01-10T04:25:48;-6.80;99.90
10249;DHT22;5169;50.560;9.714;2024-01-10T04:28:14;-6.80;99.90
10249;DHT22;5169;50.560;9.714;2024-01-10T04:30:39;-6.80;99.90
10249;DHT22;5169;50.560;9.714;2024-01-10T04:33:05;-6.80;99.90
10249;DHT22;5169;50.560;9.714;2024-01-10T04:35:30;-6.80;99.90
10249;DHT22;5169;50.560;9.714;2024-01-10T04:37:56;-6.80;99.90
10249;DHT22;5169;50.560;9.714;2024-01-10T04:40:21;-6.80;99.90
10249;DHT22;5169;50.560;9.714;2024-01-10T04:42:48;-6.80;99.90
10249;DHT22;5169;50.560;9.714;2024-01-10T04:45:13;-6.70;99.90
10249;DHT22;5169;50.560;9.714;2024-01-10T04:47:39;-6.70;99.90
10249;DHT22;5169;50.560;9.714;2024-01-10T04:50:05;-6.70;99.90
10249;DHT22;5169;50.560;9.714;2024-01-10T04:52:33;-6.70;99.90
10249;DHT22;5169;50.560;9.714;2024-01-10T04:55:01;-6.70;99.90
10249;DHT22;5169;50.560;9.714;2024-01-10T04:57:31;-6.70;99.90
10249;DHT22;5169;50.560;9.714;2024-01-10T04:59:59;-6.80;99.90
10249;DHT22;5169;50.560;9.714;2024-01-10T05:02:27;-6.70;99.90
10249;DHT22;5169;50.560;9.714;2024-01-10T05:04:52;-6.80;99.90
10249;DHT22;5169;50.560;9.714;2024-01-10T05:07:18;-6.80;99.90
10249;DHT22;5169;50.560;9.714;2024-01-10T05:09:46;-6.80;99.90
10249;DHT22;5169;50.560;9.714;2024-01-10T05:12:11;-6.90;99.90
10249;DHT22;5169;50.560;9.714;2024-01-10T05:14:39;-6.90;99.90
10249;DHT22;5169;50.560;9.714;2024-01-10T05:17:06;-6.90;99.90
10249;DHT22;5169;50.560;9.714;2024-01-10T05:19:31;-6.80;99.90
10249;DHT22;5169;50.560;9.714;2024-01-10T05:22:00;-6.90;99.90
10249;DHT22;5169;50.560;9.714;2024-01-10T05:24:25;-6.90;99.90
10249;DHT22;5169;50.560;9.714;2024-01-10T05:26:51;-7.00;99.90
10249;DHT22;5169;50.560;9.714;2024-01-10T05:29:16;-7.00;99.90
10249;DHT22;5169;50.560;9.714;2024-01-10T05:31:45;-6.90;99.90
10249;DHT22;5169;50.560;9.714;2024-01-10T05:34:13;-6.80;99.90
10249;DHT22;5169;50.560;9.714;2024-01-10T05:36:39;-7.00;99.90
10249;DHT22;5169;50.560;9.714;2024-01-10T05:39:04;-6.90;99.90
10249;DHT22;5169;50.560;9.714;2024-01-10T05:41:30;-6.90;99.90
10249;DHT22;5169;50.560;9.714;2024-01-10T05:43:55;-6.80;99.90
10249;DHT22;5169;50.560;9.714;2024-01-10T05:46:26;-6.90;99.90
10249;DHT22;5169;50.560;9.714;2024-01-10T05:48:53;-7.10;99.90
10249;DHT22;5169;50.560;9.714;2024-01-10T05:51:21;-7.00;99.90
10249;DHT22;5169;50.560;9.714;2024-01-10T05:53:47;-7.00;99.90
10249;DHT22;5169;50.560;9.714;2024-01-10T05:56:12;-7.00;99.90
10249;DHT22;5169;50.560;9.714;2024-01-10T05:58:40;-7.00;99.90
10249;DHT22;5169;50.560;9.714;2024-01-10T06:01:09;-7.20;99.90
10249;DHT22;5169;50.560;9.714;2024-01-10T06:03:35;-7.30;99.90
10249;DHT22;5169;50.560;9.714;2024-01-10T06:06:04;-7.20;99.90
10249;DHT22;5169;50.560;9.714;2024-01-10T06:08:32;-7.20;99.90
10249;DHT22;5169;50.560;9.714;2024-01-10T06:10:57;-7.10;99.90
10249;DHT22;5169;50.560;9.714;2024-01-10T06:13:23;-7.10;99.90
10249;DHT22;5169;50.560;9.714;2024-01-10T06:15:49;-7.00;99.90
10249;DHT22;5169;50.560;9.714;2024-01-10T06:18:14;-7.00;99.90
10249;DHT22;5169;50.560;9.714;2024-01-10T06:20:42;-6.90;99.90
10249;DHT22;5169;50.560;9.714;2024-01-10T06:23:08;-6.80;99.90
10249;DHT22;5169;50.560;9.714;2024-01-10T06:25:34;-6.70;99.90
10249;DHT22;5169;50.560;9.714;2024-01-10T06:27:59;-6.80;99.90
10249;DHT22;5169;50.560;9.714;2024-01-10T06:30:25;-6.80;99.90
10249;DHT22;5169;50.560;9.714;2024-01-10T06:32:53;-6.70;99.90
10249;DHT22;5169;50.560;9.714;2024-01-10T06:35:19;-6.60;99.90
10249;DHT22;5169;50.560;9.714;2024-01-10T06:37:47;-6.70;99.90
10249;DHT22;5169;50.560;9.714;2024-01-10T06:40:13;-6.70;99.90
10249;DHT22;5169;50.560;9.714;2024-01-10T06:42:38;-6.60;99.90
10249;DHT22;5169;50.560;9.714;2024-01-10T06:45:05;-6.60;99.90
10249;DHT22;5169;50.560;9.714;2024-01-10T06:47:32;-6.60;99.90
10249;DHT22;5169;50.560;9.714;2024-01-10T06:49:59;-6.60;99.90
10249;DHT22;5169;50.560;9.714;2024-01-10T06:52:24;-6.60;99.90
10249;DHT22;5169;50.560;9.714;2024-01-10T06:54:50;-6.50;99.90
10249;DHT22;5169;50.560;9.714;2024-01-10T06:57:16;-6.50;99.90
10249;DHT22;5169;50.560;9.714;2024-01-10T06:59:46;-6.50;99.90
10249;DHT22;5169;50.560;9.714;2024-01-10T07:02:14;-6.60;99.90
10249;DHT22;5169;50.560;9.714;2024-01-10T07:04:42;-6.60;99.90
10249;DHT22;5169;50.560;9.714;2024-01-10T07:07:08;-6.70;99.90
10249;DHT22;5169;50.560;9.714;2024-01-10T07:09:39;-6.70;99.90
10249;DHT22;5169;50.560;9.714;2024-01-10T07:12:06;-6.70;99.90
10249;DHT22;5169;50.560;9.714;2024-01-10T07:14:32;-6.70;99.90
10249;DHT22;5169;50.560;9.714;2024-01-10T07:17:00;-6.70;99.90
10249;DHT22;5169;50.560;9.714;2024-01-10T07:19:26;-6.60;99.90
10249;DHT22;5169;50.560;9.714;2024-01-10T07:21:51;-6.60;99.90
10249;DHT22;5169;50.560;9.714;2024-01-10T07:24:20;-6.60;99.90
10249;DHT22;5169;50.560;9.714;2024-01-10T07:26:46;-6.60;99.90
10249;DHT22;5169;50.560;9.714;2024-01-10T07:29:14;-6.50;99.90
10249;DHT22;5169;50.560;9.714;2024-01-10T07:31:39;-6.50;99.90
10249;DHT22;5169;50.560;9.714;2024-01-10T07:34:05;-6.50;99.90
10249;DHT22;5169;50.560;9.714;2024-01-10T07:36:41;-6.50;99.90
10249;DHT22;5169;50.560;9.714;2024-01-10T07:39:07;-6.50;99.90
10249;DHT22;5169;50.560;9.714;2024-01-10T07:41:33;-6.30;99.90
10249;DHT22;5169;50.560;9.714;2024-01-10T07:43:58;-6.20;99.90
10249;DHT22;5169;50.560;9.714;2024-01-10T07:46:24;-6.20;99.90
10249;DHT22;5169;50.560;9.714;2024-01-10T07:48:52;-6.20;99.90
10249;DHT22;5169;50.560;9.714;2024-01-10T07:51:18;-6.20;99.90
10249;DHT22;5169;50.560;9.714;2024-01-10T07:53:44;-6.10;99.90
10249;DHT22;5169;50.560;9.714;2024-01-10T07:56:14;-6.10;99.90
10249;DHT22;5169;50.560;9.714;2024-01-10T07:58:42;-6.20;99.90
10249;DHT22;5169;50.560;9.714;2024-01-10T08:01:10;-6.10;99.90
10249;DHT22;5169;50.560;9.714;2024-01-10T08:03:36;-6.10;99.90
10249;DHT22;5169;50.560;9.714;2024-01-10T08:06:02;-6.10;99.90
10249;DHT22;5169;50.560;9.714;2024-01-10T08:08:28;-6.20;99.90
10249;DHT22;5169;50.560;9.714;2024-01-10T08:10:55;-6.10;99.90
10249;DHT22;5169;50.560;9.714;2024-01-10T08:13:21;-6.20;99.90
10249;DHT22;5169;50.560;9.714;2024-01-10T08:15:48;-6.10;99.90
10249;DHT22;5169;50.560;9.714;2024-01-10T08:18:14;-6.00;99.90
10249;DHT22;5169;50.560;9.714;2024-01-10T08:20:40;-5.90;99.90
10249;DHT22;5169;50.560;9.714;2024-01-10T08:23:05;-5.80;99.90
10249;DHT22;5169;50.560;9.714;2024-01-10T08:25:31;-5.90;99.90
10249;DHT22;5169;50.560;9.714;2024-01-10T08:27:59;-6.00;99.90
10249;DHT22;5169;50.560;9.714;2024-01-10T08:30:27;-5.90;99.90
10249;DHT22;5169;50.560;9.714;2024-01-10T08:32:52;-5.90;99.90
10249;DHT22;5169;50.560;9.714;2024-01-10T08:35:18;-5.80;99.90
10249;DHT22;5169;50.560;9.714;2024-01-10T08:37:44;-5.80;99.90
10249;DHT22;5169;50.560;9.714;2024-01-10T08:40:12;-5.80;99.90
10249;DHT22;5169;50.560;9.714;2024-01-10T08:42:40;-5.80;99.90
10249;DHT22;5169;50.560;9.714;2024-01-10T08:45:06;-5.70;99.90
10249;DHT22;5169;50.560;9.714;2024-01-10T08:47:37;-5.50;99.90
10249;DHT22;5169;50.560;9.714;2024-01-10T08:50:04;-5.50;99.90
10249;DHT22;5169;50.560;9.714;2024-01-10T08:52:31;-5.50;99.90
10249;DHT22;5169;50.560;9.714;2024-01-10T08:54:56;-5.40;99.90
10249;DHT22;5169;50.560;9.714;2024-01-10T08:57:22;-5.30;99.90
10249;DHT22;5169;50.560;9.714;2024-01-10T08:59:48;-5.20;99.90
10249;DHT22;5169;50.560;9.714;2024-01-10T09:02:14;-5.10;99.90
10249;DHT22;5169;50.560;9.714;2024-01-10T09:04:40;-4.60;99.90
10249;DHT22;5169;50.560;9.714;2024-01-10T09:07:08;-4.00;99.90
10249;DHT22;5169;50.560;9.714;2024-01-10T09:09:35;-3.00;99.90
10249;DHT22;5169;50.560;9.714;2024-01-10T09:12:03;-1.90;99.90
10249;DHT22;5169;50.560;9.714;2024-01-10T09:14:29;-1.00;99.90
10249;DHT22;5169;50.560;9.714;2024-01-10T09:16:54;-0.60;99.90
10249;DHT22;5169;50.560;9.714;2024-01-10T09:19:24;0.00;99.80
10249;DHT22;5169;50.560;9.714;2024-01-10T09:21:52;1.00;98.20
10249;DHT22;5169;50.560;9.714;2024-01-10T09:24:17;1.40;96.90
10249;DHT22;5169;50.560;9.714;2024-01-10T09:26:43;1.70;95.90
10249;DHT22;5169;50.560;9.714;2024-01-10T09:29:11;1.90;95.50
10249;DHT22;5169;50.560;9.714;2024-01-10T09:31:37;2.20;94.40
10249;DHT22;5169;50.560;9.714;2024-01-10T09:34:02;2.50;93.60
10249;DHT22;5169;50.560;9.714;2024-01-10T09:36:28;2.20;94.00
10249;DHT22;5169;50.560;9.714;2024-01-10T09:38:54;1.30;94.40
10249;DHT22;5169;50.560;9.714;2024-01-10T09:41:19;1.40;94.80
10249;DHT22;5169;50.560;9.714;2024-01-10T09:43:45;1.60;94.50
10249;DHT22;5169;50.560;9.714;2024-01-10T09:46:17;1.40;94.80
10249;DHT22;5169;50.560;9.714;2024-01-10T09:48:44;1.70;94.30
10249;DHT22;5169;50.560;9.714;2024-01-10T09:51:12;1.80;93.90
10249;DHT22;5169;50.560;9.714;2024-01-10T09:53:44;1.50;94.20
10249;DHT22;5169;50.560;9.714;2024-01-10T09:56:17;1.90;94.50
10249;DHT22;5169;50.560;9.714;2024-01-10T09:58:45;3.40;92.50
10249;DHT22;5169;50.560;9.714;2024-01-10T10:01:16;4.60;90.50
10249;DHT22;5169;50.560;9.714;2024-01-10T10:03:45;5.10;87.50
10249;DHT22;5169;50.560;9.714;2024-01-10T10:06:11;5.40;86.60
10249;DHT22;5169;50.560;9.714;2024-01-10T10:08:39;5.60;83.80
10249;DHT22;5169;50.560;9.714;2024-01-10T10:11:11;5.80;83.60
10249;DHT22;5169;50.560;9.714;2024-01-10T10:13:39;5.70;83.70
10249;DHT22;5169;50.560;9.714;2024-01-10T10:16:07;7.20;81.50
10249;DHT22;5169;50.560;9.714;2024-01-10T10:18:39;6.60;76.40
10249;DHT22;5169;50.560;9.714;2024-01-10T10:21:14;6.70;78.80
10249;DHT22;5169;50.560;9.714;2024-01-10T10:23:41;6.80;79.10
10249;DHT22;5169;50.560;9.714;2024-01-10T10:26:12;7.30;76.60
10249;DHT22;5169;50.560;9.714;2024-01-10T10:28:40;7.70;74.60
10249;DHT22;5169;50.560;9.714;2024-01-10T10:31:06;7.20;71.80
10249;DHT22;5169;50.560;9.714;2024-01-10T10:33:34;6.20;74.80
10249;DHT22;5169;50.560;9.714;2024-01-10T10:36:03;6.10;75.90
10249;DHT22;5169;50.560;9.714;2024-01-10T10:38:29;7.10;74.00
10249;DHT22;5169;50.560;9.714;2024-01-10T10:40:55;8.30;71.40
10249;DHT22;5169;50.560;9.714;2024-01-10T10:43:23;9.60;68.70
10249;DHT22;5169;50.560;9.714;2024-01-10T10:45:49;9.70;67.20
10249;DHT22;5169;50.560;9.714;2024-01-10T10:48:19;9.60;63.60
10249;DHT22;5169;50.560;9.714;2024-01-10T10:51:12;9.80;64.60
10249;DHT22;5169;50.560;9.714;2024-01-10T10:53:42;9.00;65.00
10249;DHT22;5169;50.560;9.714;2024-01-10T10:56:11;9.10;66.80
10249;DHT22;5169;50.560;9.714;2024-01-10T10:58:42;8.90;67.60
10249;DHT22;5169;50.560;9.714;2024-01-10T11:01:09;8.90;65.40
10249;DHT22;5169;50.560;9.714;2024-01-10T11:03:38;9.10;64.70
10249;DHT22;5169;50.560;9.714;2024-01-10T11:06:06;9.10;64.50
10249;DHT22;5169;50.560;9.714;2024-01-10T11:08:42;9.10;64.00
10249;DHT22;5169;50.560;9.714;2024-01-10T11:11:22;9.80;63.00
10249;DHT22;5169;50.560;9.714;2024-01-10T11:16:29;8.30;64.80
10249;DHT22;5169;50.560;9.714;2024-01-10T11:24:23;8.10;64.70
10249;DHT22;5169;50.560;9.714;2024-01-10T11:26:52;6.60;69.00
10249;DHT22;5169;50.560;9.714;2024-01-10T11:29:33;7.50;69.00
10249;DHT22;5169;50.560;9.714;2024-01-10T11:32:01;8.60;66.80
10249;DHT22;5169;50.560;9.714;2024-01-10T11:34:27;9.20;65.00
10249;DHT22;5169;50.560;9.714;2024-01-10T11:37:09;8.10;64.90
10249;DHT22;5169;50.560;9.714;2024-01-10T11:39:36;6.70;68.50
10249;DHT22;5169;50.560;9.714;2024-01-10T11:42:02;6.80;69.40
10249;DHT22;5169;50.560;9.714;2024-01-10T11:44:28;6.80;70.70
10249;DHT22;5169;50.560;9.714;2024-01-10T11:46:55;8.00;67.30
10249;DHT22;5169;50.560;9.714;2024-01-10T11:49:22;7.10;68.50
10249;DHT22;5169;50.560;9.714;2024-01-10T11:51:55;6.50;68.90
10249;DHT22;5169;50.560;9.714;2024-01-10T11:54:42;7.30;71.50
10249;DHT22;5169;50.560;9.714;2024-01-10T11:57:20;7.10;70.10
10249;DHT22;5169;50.560;9.714;2024-01-10T11:59:53;6.80;70.00
10249;DHT22;5169;50.560;9.714;2024-01-10T12:02:22;5.90;72.10
10249;DHT22;5169;50.560;9.714;2024-01-10T12:04:50;6.40;73.20
10249;DHT22;5169;50.560;9.714;2024-01-10T12:07:17;6.30;72.30
10249;DHT22;5169;50.560;9.714;2024-01-10T12:09:48;6.30;72.80
10249;DHT22;5169;50.560;9.714;2024-01-10T12:12:15;6.20;73.20
10249;DHT22;5169;50.560;9.714;2024-01-10T12:14:42;5.90;75.20
10249;DHT22;5169;50.560;9.714;2024-01-10T12:17:11;6.50;74.10
10249;DHT22;5169;50.560;9.714;2024-01-10T12:19:39;6.40;73.60
10249;DHT22;5169;50.560;9.714;2024-01-10T12:22:05;6.40;73.40
10249;DHT22;5169;50.560;9.714;2024-01-10T12:24:31;6.60;73.60
10249;DHT22;5169;50.560;9.714;2024-01-10T12:26:59;7.50;72.70
10249;DHT22;5169;50.560;9.714;2024-01-10T12:29:25;8.40;70.70
10249;DHT22;5169;50.560;9.714;2024-01-10T12:31:52;8.90;69.00
10249;DHT22;5169;50.560;9.714;2024-01-10T12:34:20;9.50;66.60
10249;DHT22;5169;50.560;9.714;2024-01-10T12:36:49;10.20;65.00
10249;DHT22;5169;50.560;9.714;2024-01-10T12:39:19;11.00;64.10
10249;DHT22;5169;50.560;9.714;2024-01-10T12:41:45;11.60;61.60
10249;DHT22;5169;50.560;9.714;2024-01-10T12:44:12;11.60;60.10
10249;DHT22;5169;50.560;9.714;2024-01-10T12:46:51;10.30;61.40
10249;DHT22;5169;50.560;9.714;2024-01-10T12:49:18;10.60;63.40
10249;DHT22;5169;50.560;9.714;2024-01-10T12:51:43;10.30;63.30
10249;DHT22;5169;50.560;9.714;2024-01-10T12:54:11;10.60;62.40
10249;DHT22;5169;50.560;9.714;2024-01-10T12:56:37;9.70;63.20
10249;DHT22;5169;50.560;9.714;2024-01-10T12:59:05;8.90;64.90
10249;DHT22;5169;50.560;9.714;2024-01-10T13:01:30;8.70;65.80
10249;DHT22;5169;50.560;9.714;2024-01-10T13:03:58;8.60;66.70
10249;DHT22;5169;50.560;9.714;2024-01-10T13:06:24;8.20;68.20
10249;DHT22;5169;50.560;9.714;2024-01-10T13:08:53;8.40;68.10
10249;DHT22;5169;50.560;9.714;2024-01-10T13:11:20;8.20;68.70
10249;DHT22;5169;50.560;9.714;2024-01-10T13:13:45;8.00;69.50
10249;DHT22;5169;50.560;9.714;2024-01-10T13:16:11;8.30;68.60
10249;DHT22;5169;50.560;9.714;2024-01-10T13:18:38;8.40;68.10
10249;DHT22;5169;50.560;9.714;2024-01-10T13:21:06;7.50;70.40
10249;DHT22;5169;50.560;9.714;2024-01-10T13:23:35;6.70;72.20
10249;DHT22;5169;50.560;9.714;2024-01-10T13:26:01;7.00;73.40
10249;DHT22;5169;50.560;9.714;2024-01-10T13:28:29;7.00;72.90
10249;DHT22;5169;50.560;9.714;2024-01-10T13:30:55;6.40;73.30
10249;DHT22;5169;50.560;9.714;2024-01-10T13:33:21;6.20;74.80
10249;DHT22;5169;50.560;9.714;2024-01-10T13:35:47;5.60;75.80
10249;DHT22;5169;50.560;9.714;2024-01-10T13:38:15;5.30;77.60
10249;DHT22;5169;50.560;9.714;2024-01-10T13:40:41;4.50;79.00
10249;DHT22;5169;50.560;9.714;2024-01-10T13:43:06;4.00;81.80
10249;DHT22;5169;50.560;9.714;2024-01-10T13:45:32;3.90;82.90
10249;DHT22;5169;50.560;9.714;2024-01-10T13:48:00;3.80;83.40
10249;DHT22;5169;50.560;9.714;2024-01-10T13:50:29;3.70;83.40
10249;DHT22;5169;50.560;9.714;2024-01-10T13:52:55;3.50;84.50
10249;DHT22;5169;50.560;9.714;2024-01-10T13:55:21;3.40;85.30
10249;DHT22;5169;50.560;9.714;2024-01-10T13:57:48;3.30;87.00
10249;DHT22;5169;50.560;9.714;2024-01-10T14:00:14;2.90;87.30
10249;DHT22;5169;50.560;9.714;2024-01-10T14:02:43;2.20;90.10
10249;DHT22;5169;50.560;9.714;2024-01-10T14:05:11;1.80;91.10
10249;DHT22;5169;50.560;9.714;2024-01-10T14:07:36;1.50;92.10
10249;DHT22;5169;50.560;9.714;2024-01-10T14:10:04;1.20;92.70
10249;DHT22;5169;50.560;9.714;2024-01-10T14:12:30;0.90;93.90
10249;DHT22;5169;50.560;9.714;2024-01-10T14:14:58;0.80;94.70
10249;DHT22;5169;50.560;9.714;2024-01-10T14:17:25;0.70;95.10
10249;DHT22;5169;50.560;9.714;2024-01-10T14:19:55;0.70;95.50
10249;DHT22;5169;50.560;9.714;2024-01-10T14:22:21;0.50;96.20
10249;DHT22;5169;50.560;9.714;2024-01-10T14:24:49;0.50;96.80
10249;DHT22;5169;50.560;9.714;2024-01-10T14:27:17;0.40;97.10
10249;DHT22;5169;50.560;9.714;2024-01-10T14:29:45;0.40;97.40
10249;DHT22;5169;50.560;9.714;2024-01-10T14:32:13;0.30;97.80
10249;DHT22;5169;50.560;9.714;2024-01-10T14:34:39;0.20;98.20
10249;DHT22;5169;50.560;9.714;2024-01-10T14:37:06;0.20;98.50
10249;DHT22;5169;50.560;9.714;2024-01-10T14:39:35;0.20;98.70
10249;DHT22;5169;50.560;9.714;2024-01-10T14:42:05;0.20;98.80
10249;DHT22;5169;50.560;9.714;2024-01-10T14:44:31;0.10;99.30
10249;DHT22;5169;50.560;9.714;2024-01-10T14:46:56;0.00;99.70
10249;DHT22;5169;50.560;9.714;2024-01-10T14:49:22;0.00;99.90
10249;DHT22;5169;50.560;9.714;2024-01-10T14:51:48;-0.10;99.90
10249;DHT22;5169;50.560;9.714;2024-01-10T14:54:15;-0.10;99.90
10249;DHT22;5169;50.560;9.714;2024-01-10T14:56:45;-0.20;99.90
10249;DHT22;5169;50.560;9.714;2024-01-10T14:59:11;-0.20;99.90
10249;DHT22;5169;50.560;9.714;2024-01-10T15:01:36;-0.30;99.90
10249;DHT22;5169;50.560;9.714;2024-01-10T15:04:05;-0.30;99.90
10249;DHT22;5169;50.560;9.714;2024-01-10T15:06:35;-0.40;99.90
10249;DHT22;5169;50.560;9.714;2024-01-10T15:09:00;-0.40;99.90
10249;DHT22;5169;50.560;9.714;2024-01-10T15:11:26;-0.40;99.90
10249;DHT22;5169;50.560;9.714;2024-01-10T15:13:54;-0.40;99.90
10249;DHT22;5169;50.560;9.714;2024-01-10T15:16:22;-0.50;99.90
10249;DHT22;5169;50.560;9.714;2024-01-10T15:18:47;-0.50;99.90
10249;DHT22;5169;50.560;9.714;2024-01-10T15:21:15;-0.60;99.90
10249;DHT22;5169;50.560;9.714;2024-01-10T15:23:41;-0.60;99.90
10249;DHT22;5169;50.560;9.714;2024-01-10T15:26:07;-0.70;99.90
10249;DHT22;5169;50.560;9.714;2024-01-10T15:28:34;-0.80;99.90
10249;DHT22;5169;50.560;9.714;2024-01-10T15:30:59;-0.90;99.90
10249;DHT22;5169;50.560;9.714;2024-01-10T15:33:29;-1.10;99.90
10249;DHT22;5169;50.560;9.714;2024-01-10T15:35:55;-1.30;99.90
10249;DHT22;5169;50.560;9.714;2024-01-10T15:38:21;-1.30;99.90
10249;DHT22;5169;50.560;9.714;2024-01-10T15:40:49;-1.20;99.90
10249;DHT22;5169;50.560;9.714;2024-01-10T15:43:17;-1.20;99.90
10249;DHT22;5169;50.560;9.714;2024-01-10T15:45:43;-1.20;99.90
10249;DHT22;5169;50.560;9.714;2024-01-10T15:48:08;-1.00;99.90
10249;DHT22;5169;50.560;9.714;2024-01-10T15:50:36;-0.90;99.90
10249;DHT22;5169;50.560;9.714;2024-01-10T15:53:05;-0.90;99.90
10249;DHT22;5169;50.560;9.714;2024-01-10T15:55:33;-0.90;99.90
10249;DHT22;5169;50.560;9.714;2024-01-10T15:57:59;-1.00;99.90